Time;durP1;ratioP1;P1;durP2;ratioP2;P2;SDS_P1;SDS_P2;PMS_P1;PMS_P2;Temp;Humidity;BMP_temperature;BMP_pressure;BME280_temperature;BME280_humidity;BME280_pressure;Samples;Min_cycle;Max_cycle;Signal;HPM_P1;HPM_P2
2023/04/11 00:00:26;;;;;;;10.60;2.55;;;8.70;99.90;;;;;;5074055;28;20041;-45
2023/04/11 00:02:53;;;;;;;12.10;2.20;;;8.90;99.90;;;;;;5074312;28;20044;-44
2023/04/11 00:05:19;;;;;;;12.00;2.53;;;8.70;99.90;;;;;;5074216;28;20044;-44
2023/04/11 00:07:45;;;;;;;13.25;2.78;;;8.80;99.90;;;;;;5073967;28;20036;-45
2023/04/11 00:10:11;;;;;;;11.95;2.22;;;8.50;99.90;;;;;;5073999;28;20370;-45
2023/04/11 00:12:37;;;;;;;9.95;2.03;;;8.60;99.90;;;;;;5074223;28;20400;-45
2023/04/11 00:15:03;;;;;;;13.10;2.55;;;8.50;99.90;;;;;;5074165;28;20040;-45
2023/04/11 00:17:30;;;;;;;9.63;2.00;;;8.20;99.90;;;;;;5073872;28;20052;-45
2023/04/11 00:20:00;;;;;;;9.20;2.10;;;8.40;99.90;;;;;;5073847;28;20052;-45
2023/04/11 00:22:26;;;;;;;10.52;2.00;;;8.40;99.90;;;;;;5074129;28;20056;-45
2023/04/11 00:24:52;;;;;;;12.60;3.20;;;8.50;99.90;;;;;;5073722;28;20508;-46
2023/04/11 00:27:18;;;;;;;7.57;2.00;;;8.30;99.90;;;;;;5072940;28;20028;-45
2023/04/11 00:29:43;;;;;;;10.20;2.10;;;8.40;99.90;;;;;;5072562;28;20501;-46
2023/04/11 00:32:09;;;;;;;11.27;3.22;;;8.10;99.90;;;;;;5073270;28;20033;-45
2023/04/11 00:34:35;;;;;;;14.90;2.50;;;8.40;99.90;;;;;;5073499;28;20040;-46
2023/04/11 00:37:00;;;;;;;13.98;2.35;;;8.30;99.90;;;;;;5073461;28;20086;-46
2023/04/11 00:39:29;;;;;;;10.52;2.30;;;8.10;99.90;;;;;;5073511;28;20047;-45
2023/04/11 00:42:04;;;;;;;11.82;2.15;;;8.30;99.90;;;;;;5073185;28;20044;-44
2023/04/11 00:44:30;;;;;;;12.70;2.40;;;8.00;99.90;;;;;;5073413;28;20051;-47
2023/04/11 00:46:56;;;;;;;17.80;3.50;;;8.30;99.90;;;;;;5072278;28;20033;-46
2023/04/11 00:49:22;;;;;;;16.58;3.15;;;8.00;99.90;;;;;;5073132;28;20083;-45
2023/04/11 00:51:47;;;;;;;16.98;3.22;;;8.00;99.90;;;;;;5073171;28;20115;-47
2023/04/11 00:54:15;;;;;;;17.10;3.53;;;8.20;99.90;;;;;;5073406;28;20516;-44
2023/04/11 00:56:42;;;;;;;15.60;3.70;;;8.00;99.90;;;;;;5073411;28;20123;-45
2023/04/11 00:59:08;;;;;;;21.42;5.63;;;8.00;99.90;;;;;;5073010;28;20055;-48
2023/04/11 01:01:35;;;;;;;14.75;3.15;;;7.90;99.90;;;;;;5072716;28;20493;-48
2023/04/11 01:04:01;;;;;;;18.30;3.80;;;8.20;99.90;;;;;;5072981;28;20040;-46
2023/04/11 01:06:29;;;;;;;17.58;3.47;;;8.20;99.90;;;;;;5072888;28;20536;-45
2023/04/11 01:08:55;;;;;;;21.92;3.42;;;7.90;99.90;;;;;;5073034;28;20433;-45
2023/04/11 01:11:22;;;;;;;21.20;3.65;;;8.00;99.90;;;;;;5073148;28;20044;-48
2023/04/11 01:13:49;;;;;;;14.57;2.88;;;8.20;99.90;;;;;;5072868;28;20488;-45
2023/04/11 01:16:20;;;;;;;19.33;3.45;;;8.20;99.90;;;;;;5071608;28;20036;-47
2023/04/11 01:18:46;;;;;;;17.70;2.78;;;7.90;99.90;;;;;;5072543;28;20472;-47
2023/04/11 01:21:12;;;;;;;13.88;2.25;;;8.20;99.90;;;;;;5072764;28;20040;-45
2023/04/11 01:23:38;;;;;;;12.05;2.47;;;8.00;99.90;;;;;;5072453;28;20047;-44
2023/04/11 01:26:04;;;;;;;10.90;2.13;;;8.10;99.90;;;;;;5072639;28;20524;-46
2023/04/11 01:28:30;;;;;;;12.02;1.80;;;7.90;99.90;;;;;;5072342;28;20089;-44
2023/04/11 01:30:56;;;;;;;11.40;2.10;;;7.90;99.90;;;;;;5072611;28;20044;-45
2023/04/11 01:33:22;;;;;;;15.38;3.60;;;8.10;99.90;;;;;;5072305;28;20451;-46
2023/04/11 01:35:48;;;;;;;13.25;2.40;;;7.80;99.90;;;;;;5070960;28;20660;-47
2023/04/11 01:38:14;;;;;;;13.63;2.38;;;7.80;99.90;;;;;;5072273;28;20085;-46
2023/04/11 01:40:40;;;;;;;12.70;2.20;;;8.00;99.90;;;;;;5072190;28;20048;-44
2023/04/11 01:43:08;;;;;;;12.32;2.10;;;8.00;99.90;;;;;;5072198;28;20044;-49
2023/04/11 01:45:34;;;;;;;13.00;2.10;;;8.00;99.90;;;;;;5071005;28;20607;-45
2023/04/11 01:48:07;;;;;;;13.02;2.40;;;7.80;99.90;;;;;;5070735;28;20052;-45
2023/04/11 01:50:33;;;;;;;13.55;2.45;;;8.00;99.90;;;;;;5072400;28;20439;-45
2023/04/11 01:52:59;;;;;;;12.77;2.38;;;8.00;99.90;;;;;;5072046;28;20032;-45
2023/04/11 01:55:25;;;;;;;12.77;1.80;;;7.80;99.90;;;;;;5072129;28;20044;-46
2023/04/11 01:57:50;;;;;;;9.40;1.60;;;8.00;99.90;;;;;;5072082;28;20508;-45
2023/04/11 02:00:16;;;;;;;10.48;1.60;;;8.00;99.90;;;;;;5071875;28;20048;-45
2023/04/11 02:02:42;;;;;;;8.43;1.40;;;7.90;99.90;;;;;;5071891;28;20053;-47
2023/04/11 02:05:08;;;;;;;12.73;2.33;;;8.00;99.90;;;;;;5071938;28;20071;-44
2023/04/11 02:07:33;;;;;;;9.20;1.92;;;7.60;99.90;;;;;;5072028;28;20043;-50
2023/04/11 02:09:59;;;;;;;9.55;1.73;;;7.70;99.90;;;;;;5071930;28;20073;-49
2023/04/11 02:12:25;;;;;;;7.93;1.88;;;7.90;99.90;;;;;;5071850;28;20461;-49
2023/04/11 02:14:51;;;;;;;9.25;1.33;;;7.90;99.90;;;;;;5071711;28;20033;-45
2023/04/11 02:17:17;;;;;;;7.07;1.95;;;7.50;99.90;;;;;;5071690;28;20063;-45
2023/04/11 02:19:46;;;;;;;12.23;1.73;;;7.80;99.90;;;;;;5071970;28;20062;-44
2023/04/11 02:22:12;;;;;;;7.20;1.95;;;7.80;99.90;;;;;;5071891;28;20044;-44
2023/04/11 02:24:38;;;;;;;6.75;1.42;;;7.70;99.90;;;;;;5071760;28;20040;-46
2023/04/11 02:27:03;;;;;;;7.65;1.48;;;7.70;99.90;;;;;;5071930;28;20056;-45
2023/04/11 02:29:29;;;;;;;8.18;1.42;;;7.50;99.90;;;;;;5071686;28;20043;-46
2023/04/11 02:31:55;;;;;;;7.20;1.40;;;7.80;99.90;;;;;;5071663;28;20406;-47
2023/04/11 02:34:21;;;;;;;8.07;1.92;;;7.50;99.90;;;;;;5071885;28;20101;-46
2023/04/11 02:36:47;;;;;;;7.88;1.45;;;7.80;99.90;;;;;;5071880;28;20041;-47
2023/04/11 02:39:13;;;;;;;7.72;1.88;;;7.70;99.90;;;;;;5071724;28;20087;-44
2023/04/11 02:41:40;;;;;;;6.70;1.45;;;7.60;99.90;;;;;;5071508;28;20068;-46
2023/04/11 02:44:07;;;;;;;5.97;1.42;;;7.50;99.90;;;;;;5070212;28;20044;-46
2023/04/11 02:46:33;;;;;;;6.93;1.60;;;7.50;99.90;;;;;;5070221;28;20051;-45
2023/04/11 02:48:58;;;;;;;6.43;1.48;;;7.40;99.90;;;;;;5069924;28;20040;-45
2023/04/11 02:51:24;;;;;;;8.90;1.80;;;7.90;99.90;;;;;;5073065;28;20063;-45
2023/04/11 02:53:51;;;;;;;7.43;1.88;;;7.80;99.90;;;;;;5075429;28;20098;-45
2023/04/11 02:56:18;;;;;;;4.90;1.65;;;7.30;99.90;;;;;;5075458;28;20091;-45
2023/04/11 02:58:47;;;;;;;12.98;1.73;;;7.80;99.90;;;;;;5075195;28;20477;-46
2023/04/11 03:01:15;;;;;;;7.78;2.40;;;7.50;99.90;;;;;;5073762;28;20052;-45
2023/04/11 03:03:42;;;;;;;10.13;2.80;;;7.30;99.90;;;;;;5074040;28;20044;-45
2023/04/11 03:06:08;;;;;;;10.27;2.35;;;7.70;99.90;;;;;;5075144;28;20032;-46
2023/04/11 03:08:38;;;;;;;8.18;1.83;;;7.30;99.90;;;;;;5075327;28;20060;-45
2023/04/11 03:11:05;;;;;;;8.45;2.17;;;7.40;99.90;;;;;;5075217;28;20451;-45
2023/04/11 03:13:32;;;;;;;10.02;2.08;;;7.60;99.90;;;;;;5075003;28;20059;-45
2023/04/11 03:15:58;;;;;;;9.07;1.98;;;7.80;99.90;;;;;;5074003;28;20393;-45
2023/04/11 03:18:23;;;;;;;7.32;1.92;;;7.40;99.90;;;;;;5075242;28;20047;-46
2023/04/11 03:20:50;;;;;;;11.45;2.20;;;7.40;99.90;;;;;;5074848;28;20486;-46
2023/04/11 03:23:16;;;;;;;12.93;2.13;;;7.90;99.90;;;;;;5074831;28;20048;-45
2023/04/11 03:25:43;;;;;;;11.85;2.03;;;7.80;99.90;;;;;;5074601;28;20123;-45
2023/04/11 03:28:09;;;;;;;11.68;2.00;;;7.30;99.90;;;;;;5073534;28;20045;-46
2023/04/11 03:30:39;;;;;;;11.13;2.13;;;7.80;99.90;;;;;;5074938;28;20047;-44
2023/04/11 03:33:05;;;;;;;10.90;2.50;;;7.30;99.90;;;;;;5057366;28;20327;-49
2023/04/11 03:35:31;;;;;;;9.38;2.13;;;7.60;99.90;;;;;;5074987;28;20044;-49
2023/04/11 03:37:56;;;;;;;12.32;2.50;;;7.80;99.90;;;;;;5074740;28;20139;-48
2023/04/11 03:40:23;;;;;;;10.25;2.30;;;7.40;99.90;;;;;;5074343;28;20044;-49
2023/04/11 03:42:49;;;;;;;13.18;2.97;;;7.40;99.90;;;;;;5074889;28;20036;-49
2023/04/11 03:45:16;;;;;;;22.67;3.95;;;7.40;99.90;;;;;;5072209;28;20036;-50
2023/04/11 03:47:41;;;;;;;12.90;2.60;;;7.80;99.90;;;;;;5074513;28;20170;-49
2023/04/11 03:50:07;;;;;;;12.18;2.78;;;7.90;99.90;;;;;;5056695;28;20071;-49
2023/04/11 03:52:34;;;;;;;14.32;3.42;;;7.30;99.90;;;;;;5074353;28;20048;-47
2023/04/11 03:55:01;;;;;;;11.48;2.58;;;7.80;99.90;;;;;;5074125;28;20111;-47
2023/04/11 03:57:27;;;;;;;17.42;3.35;;;7.80;99.90;;;;;;5074385;28;20113;-48
2023/04/11 03:59:54;;;;;;;12.55;3.05;;;7.50;99.90;;;;;;5074132;28;20032;-46
2023/04/11 04:02:20;;;;;;;15.10;4.63;;;7.70;99.90;;;;;;5072845;28;20513;-47
2023/04/11 04:04:47;;;;;;;16.38;3.40;;;7.60;99.90;;;;;;5074258;28;20051;-46
2023/04/11 04:07:13;;;;;;;11.68;2.83;;;7.80;99.90;;;;;;5073089;28;20049;-47
2023/04/11 04:09:42;;;;;;;12.57;3.10;;;7.90;99.90;;;;;;5074556;28;20055;-45
2023/04/11 04:12:08;;;;;;;12.48;3.17;;;7.70;99.90;;;;;;5074003;28;20040;-45
2023/04/11 04:14:34;;;;;;;16.45;3.92;;;7.90;99.90;;;;;;5074258;28;20044;-46
2023/04/11 04:16:59;;;;;;;13.20;3.00;;;7.30;99.90;;;;;;5074052;28;20040;-48
2023/04/11 04:19:25;;;;;;;12.48;3.17;;;7.40;99.90;;;;;;5073860;28;20484;-46
2023/04/11 04:21:51;;;;;;;13.93;3.30;;;7.60;99.90;;;;;;5073720;28;20123;-45
2023/04/11 04:24:16;;;;;;;12.35;2.83;;;7.40;99.90;;;;;;5073790;28;20043;-45
2023/04/11 04:26:42;;;;;;;18.50;3.67;;;7.40;99.90;;;;;;5072464;28;20072;-46
2023/04/11 04:29:08;;;;;;;12.30;3.10;;;7.40;99.90;;;;;;5073761;28;20060;-46
2023/04/11 04:31:35;;;;;;;14.10;3.45;;;7.40;99.90;;;;;;5073667;28;20115;-45
2023/04/11 04:34:08;;;;;;;9.52;2.70;;;7.40;99.90;;;;;;5072626;28;20512;-45
2023/04/11 04:36:48;;;;;;;10.88;2.78;;;7.60;99.90;;;;;;5073553;28;20044;-46
2023/04/11 04:39:18;;;;;;;11.65;2.83;;;7.80;99.90;;;;;;5072578;28;20040;-46
2023/04/11 04:41:44;;;;;;;9.98;3.05;;;7.50;99.90;;;;;;5073581;28;20044;-45
2023/04/11 04:44:10;;;;;;;10.05;2.97;;;7.50;99.90;;;;;;5073573;28;20043;-45
2023/04/11 04:46:36;;;;;;;11.13;2.60;;;7.20;99.90;;;;;;5073297;28;20127;-46
2023/04/11 04:49:06;;;;;;;11.05;3.33;;;7.20;99.90;;;;;;5073269;28;20036;-45
2023/04/11 04:51:31;;;;;;;13.55;3.70;;;7.70;99.90;;;;;;5073119;28;20048;-46
2023/04/11 04:53:58;;;;;;;10.40;3.15;;;7.30;99.90;;;;;;5073138;28;20389;-46
2023/04/11 04:56:27;;;;;;;11.60;3.33;;;7.30;99.90;;;;;;5071727;28;20080;-45
2023/04/11 04:58:53;;;;;;;17.75;4.00;;;7.50;99.90;;;;;;5073182;28;20124;-48
2023/04/11 05:01:20;;;;;;;9.35;2.38;;;7.20;99.90;;;;;;5072928;28;20129;-45
2023/04/11 05:03:49;;;;;;;6.35;1.90;;;7.00;99.90;;;;;;5073038;28;20097;-47
2023/04/11 05:06:15;;;;;;;6.68;2.30;;;6.70;99.90;;;;;;5071519;28;20108;-47
2023/04/11 05:08:41;;;;;;;7.43;2.00;;;6.60;99.90;;;;;;5073072;28;20091;-46
2023/04/11 05:11:07;;;;;;;6.82;1.77;;;6.60;99.90;;;;;;5071076;28;20488;-46
2023/04/11 05:13:33;;;;;;;5.30;1.30;;;6.20;99.90;;;;;;5072465;28;20090;-48
2023/04/11 05:15:59;;;;;;;6.65;1.30;;;6.80;99.90;;;;;;5071342;28;20048;-46
2023/04/11 05:18:28;;;;;;;5.60;1.35;;;6.00;99.90;;;;;;5071387;28;20048;-49
2023/04/11 05:20:53;;;;;;;6.88;1.67;;;6.30;99.90;;;;;;5072599;28;20044;-46
2023/04/11 05:23:19;;;;;;;5.57;1.98;;;6.10;99.90;;;;;;5072356;28;20043;-45
2023/04/11 05:25:45;;;;;;;6.68;2.35;;;6.40;99.90;;;;;;5072618;28;20039;-46
2023/04/11 05:28:10;;;;;;;10.88;2.88;;;6.10;99.90;;;;;;5072486;28;20488;-47
2023/04/11 05:30:36;;;;;;;13.43;3.10;;;6.20;99.90;;;;;;5072493;28;20091;-47
2023/04/11 05:33:02;;;;;;;12.82;2.95;;;7.10;99.90;;;;;;5072165;28;20472;-48
2023/04/11 05:35:27;;;;;;;16.02;3.33;;;6.40;99.90;;;;;;5071320;28;20072;-47
2023/04/11 05:37:53;;;;;;;12.35;2.90;;;6.90;99.90;;;;;;5072554;28;20073;-47
2023/04/11 05:40:19;;;;;;;13.45;3.90;;;6.40;99.90;;;;;;5070880;28;20052;-46
2023/04/11 05:42:45;;;;;;;17.17;3.80;;;7.30;99.90;;;;;;5072013;28;20115;-49
2023/04/11 05:45:10;;;;;;;15.35;3.92;;;7.30;99.90;;;;;;5072272;28;20558;-45
2023/04/11 05:47:36;;;;;;;12.93;4.13;;;6.80;99.90;;;;;;5066211;28;20484;-46
2023/04/11 05:50:02;;;;;;;19.40;4.32;;;6.90;99.90;;;;;;5062031;28;20187;-46
2023/04/11 05:52:27;;;;;;;18.65;4.18;;;7.30;99.90;;;;;;5061559;28;20039;-47
2023/04/11 05:54:53;;;;;;;16.38;4.40;;;6.90;99.90;;;;;;5059422;28;20182;-48
2023/04/11 05:57:19;;;;;;;17.60;4.13;;;7.10;99.90;;;;;;5060754;28;20137;-46
2023/04/11 05:59:48;;;;;;;16.65;4.28;;;7.00;99.90;;;;;;5069472;28;20102;-45
2023/04/11 06:02:14;;;;;;;16.33;3.38;;;7.60;99.90;;;;;;5070031;28;20393;-45
2023/04/11 06:04:40;;;;;;;16.60;4.65;;;7.60;99.90;;;;;;5070776;28;20044;-47
2023/04/11 06:07:07;;;;;;;16.25;3.40;;;7.40;99.90;;;;;;5070591;28;20040;-49
2023/04/11 06:09:33;;;;;;;13.18;3.70;;;7.50;99.90;;;;;;5070540;28;20102;-45
2023/04/11 06:12:00;;;;;;;18.08;5.82;;;7.50;99.90;;;;;;5070282;28;20434;-46
2023/04/11 06:14:25;;;;;;;10.63;2.97;;;7.50;99.90;;;;;;5070360;28;20564;-46
2023/04/11 06:16:51;;;;;;;14.38;3.30;;;7.50;99.90;;;;;;5070322;28;20123;-46
2023/04/11 06:19:17;;;;;;;14.52;3.50;;;7.50;99.90;;;;;;5070234;28;20032;-45
2023/04/11 06:21:42;;;;;;;13.05;3.13;;;7.30;99.90;;;;;;5068797;28;20045;-49
2023/04/11 06:24:09;;;;;;;12.18;2.97;;;7.60;99.90;;;;;;5070182;28;20037;-45
2023/04/11 06:26:35;;;;;;;15.18;3.85;;;7.40;99.90;;;;;;5068201;28;20162;-48
2023/04/11 06:29:06;;;;;;;14.75;4.05;;;7.60;99.90;;;;;;5069898;28;20119;-45
2023/04/11 06:31:32;;;;;;;18.67;3.20;;;7.30;99.90;;;;;;5058309;28;20715;-46
2023/04/11 06:34:00;;;;;;;22.35;5.10;;;7.40;99.90;;;;;;5058849;28;20041;-45
2023/04/11 06:36:26;;;;;;;14.98;3.22;;;7.70;99.90;;;;;;5058139;28;20036;-45
2023/04/11 06:38:52;;;;;;;16.42;3.08;;;7.70;99.90;;;;;;5049935;28;20049;-46
2023/04/11 06:41:18;;;;;;;11.15;2.85;;;7.70;99.90;;;;;;5058203;28;20045;-47
2023/04/11 06:43:43;;;;;;;19.65;4.13;;;7.80;99.90;;;;;;5070018;28;20044;-46
2023/04/11 06:46:09;;;;;;;18.88;3.97;;;7.30;99.90;;;;;;5070069;28;20434;-45
2023/04/11 06:48:35;;;;;;;17.00;3.33;;;7.50;99.90;;;;;;5068567;28;20549;-45
2023/04/11 06:51:00;;;;;;;14.05;3.00;;;7.00;99.90;;;;;;5069971;28;20101;-46
2023/04/11 06:53:26;;;;;;;12.25;3.47;;;7.10;99.90;;;;;;5069769;28;20043;-47
2023/04/11 06:55:52;;;;;;;11.00;2.88;;;7.60;99.90;;;;;;5069993;28;20049;-46
2023/04/11 06:58:17;;;;;;;10.50;2.33;;;7.50;99.90;;;;;;5069769;28;20040;-47
2023/04/11 07:00:43;;;;;;;8.23;2.25;;;7.70;99.90;;;;;;5070656;28;20073;-46
2023/04/11 07:03:09;;;;;;;10.85;2.60;;;7.50;99.90;;;;;;5070693;28;20048;-47
2023/04/11 07:05:35;;;;;;;13.15;2.53;;;7.90;99.90;;;;;;5071318;28;20508;-45
2023/04/11 07:08:00;;;;;;;12.18;3.08;;;7.70;99.90;;;;;;5071573;28;20401;-50
2023/04/11 07:10:26;;;;;;;11.93;2.15;;;7.80;99.90;;;;;;5071343;28;20051;-46
2023/04/11 07:12:52;;;;;;;8.68;2.25;;;7.70;99.90;;;;;;5071130;28;20068;-46
2023/04/11 07:15:17;;;;;;;8.82;2.20;;;8.00;99.90;;;;;;5071343;28;20114;-45
2023/04/11 07:17:43;;;;;;;7.70;2.72;;;7.80;99.90;;;;;;5070829;28;20110;-45
2023/04/11 07:20:10;;;;;;;16.60;2.20;;;8.00;99.90;;;;;;5069023;28;20051;-46
2023/04/11 07:22:36;;;;;;;9.15;2.17;;;8.00;99.90;;;;;;5070294;28;20447;-46
2023/04/11 07:25:05;;;;;;;9.38;2.22;;;8.00;99.90;;;;;;5069267;28;20037;-45
2023/04/11 07:27:35;;;;;;;11.70;1.70;;;8.10;99.90;;;;;;5070629;28;20123;-45
2023/04/11 07:30:04;;;;;;;12.27;2.50;;;8.10;99.90;;;;;;5069957;28;20037;-47
2023/04/11 07:32:29;;;;;;;14.02;2.30;;;8.00;99.90;;;;;;5068566;28;20044;-45
2023/04/11 07:34:55;;;;;;;10.93;2.95;;;8.20;99.90;;;;;;5063244;28;20782;-49
2023/04/11 07:37:21;;;;;;;11.15;3.05;;;8.40;99.90;;;;;;5063880;28;20127;-47
2023/04/11 07:39:47;;;;;;;14.20;2.38;;;8.50;99.90;;;;;;5071594;28;20044;-47
2023/04/11 07:42:13;;;;;;;8.43;2.28;;;8.60;99.90;;;;;;5072006;28;20400;-47
2023/04/11 07:44:39;;;;;;;8.10;2.05;;;8.50;99.90;;;;;;5063803;28;20052;-46
2023/04/11 07:47:04;;;;;;;11.40;2.53;;;8.50;99.90;;;;;;5066185;28;20378;-45
2023/04/11 07:49:30;;;;;;;9.25;1.95;;;8.50;99.90;;;;;;5074589;28;20089;-46
2023/04/11 07:51:56;;;;;;;9.93;2.95;;;8.50;99.90;;;;;;5074233;28;20040;-47
2023/04/11 07:54:23;;;;;;;10.32;2.10;;;8.40;99.90;;;;;;5074215;28;20062;-46
2023/04/11 07:56:49;;;;;;;8.68;1.77;;;8.50;99.90;;;;;;5074278;28;20491;-47
2023/04/11 07:59:16;;;;;;;12.13;2.03;;;8.40;99.90;;;;;;5073905;28;20045;-48
2023/04/11 08:01:41;;;;;;;9.13;2.15;;;8.60;99.90;;;;;;5073587;28;20036;-51
2023/04/11 08:04:07;;;;;;;10.93;1.88;;;8.40;99.90;;;;;;5074097;28;20512;-51
2023/04/11 08:06:33;;;;;;;9.60;2.05;;;8.60;99.90;;;;;;5072796;28;20141;-47
2023/04/11 08:08:59;;;;;;;7.28;1.60;;;8.70;99.90;;;;;;5073901;28;20534;-46
2023/04/11 08:11:25;;;;;;;9.50;1.70;;;8.80;99.90;;;;;;5073926;28;20571;-45
2023/04/11 08:13:51;;;;;;;7.32;1.70;;;8.70;99.90;;;;;;5073828;28;20040;-49
2023/04/11 08:16:17;;;;;;;11.68;1.90;;;8.90;99.90;;;;;;5074224;28;20048;-48
2023/04/11 08:18:44;;;;;;;11.15;2.00;;;9.00;99.90;;;;;;5074086;28;20493;-47
2023/04/11 08:21:10;;;;;;;11.60;2.05;;;9.10;99.90;;;;;;5073940;28;20037;-47
2023/04/11 08:23:38;;;;;;;6.07;2.08;;;8.90;99.90;;;;;;5073822;28;20127;-46
2023/04/11 08:26:05;;;;;;;12.68;3.17;;;8.80;99.90;;;;;;5073698;28;20395;-46
2023/04/11 08:28:30;;;;;;;10.45;2.50;;;8.70;99.90;;;;;;5074009;28;20116;-46
2023/04/11 08:30:57;;;;;;;11.48;1.92;;;8.90;99.90;;;;;;5073656;28;20127;-48
2023/04/11 08:33:24;;;;;;;4.65;1.23;;;9.00;99.90;;;;;;5073731;28;20079;-47
2023/04/11 08:35:50;;;;;;;11.68;1.80;;;9.20;99.90;;;;;;5073661;28;20076;-48
2023/04/11 08:38:16;;;;;;;7.88;1.90;;;9.30;99.90;;;;;;5073695;28;20068;-47
2023/04/11 08:40:41;;;;;;;7.22;1.80;;;9.40;99.90;;;;;;5073012;28;20048;-46
2023/04/11 08:43:11;;;;;;;10.75;3.13;;;9.40;99.90;;;;;;5073665;28;20045;-46
2023/04/11 08:45:40;;;;;;;5.85;1.58;;;9.40;99.90;;;;;;5071893;28;20079;-45
2023/04/11 08:48:07;;;;;;;8.65;1.58;;;9.30;99.90;;;;;;5072861;28;20381;-47
2023/04/11 08:50:33;;;;;;;5.75;1.55;;;9.60;99.90;;;;;;5072963;28;20044;-45
2023/04/11 08:53:03;;;;;;;4.90;1.45;;;9.40;99.90;;;;;;5073323;28;20060;-46
2023/04/11 08:55:29;;;;;;;11.27;2.08;;;9.30;99.90;;;;;;5073400;28;20045;-46
2023/04/11 08:57:58;;;;;;;9.70;1.85;;;9.10;99.90;;;;;;5073419;28;20041;-47
2023/04/11 09:00:25;;;;;;;9.80;1.40;;;9.30;99.90;;;;;;5073215;28;20067;-45
2023/04/11 09:03:01;;;;;;;7.95;1.77;;;9.50;99.90;;;;;;5072894;28;20059;-46
2023/04/11 09:05:30;;;;;;;9.88;2.60;;;9.80;99.90;;;;;;5072985;28;20048;-46
2023/04/11 09:08:02;;;;;;;6.82;1.63;;;9.50;99.90;;;;;;5073183;28;20041;-46
2023/04/11 09:10:28;;;;;;;6.63;1.10;;;7.90;99.90;;;;;;5073035;28;20461;-47
2023/04/11 09:12:55;;;;;;;4.15;0.90;;;7.10;99.90;;;;;;5072994;28;20071;-47
2023/04/11 09:15:23;;;;;;;2.50;0.95;;;6.70;99.90;;;;;;5072922;28;20066;-46
2023/04/11 09:17:49;;;;;;;5.85;1.83;;;7.00;99.90;;;;;;5072860;28;20037;-49
2023/04/11 09:20:17;;;;;;;9.00;1.50;;;6.80;99.90;;;;;;5072601;28;20082;-47
2023/04/11 09:22:42;;;;;;;15.43;2.70;;;7.20;99.90;;;;;;5071603;28;20048;-51
2023/04/11 09:25:08;;;;;;;12.68;2.15;;;7.60;99.90;;;;;;5071725;28;20048;-46
2023/04/11 09:27:34;;;;;;;6.07;2.22;;;7.40;99.90;;;;;;5072017;28;20040;-49
2023/04/11 09:30:01;;;;;;;11.43;2.00;;;7.60;99.90;;;;;;5071961;28;20109;-48
2023/04/11 09:32:29;;;;;;;11.07;1.65;;;8.30;99.90;;;;;;5066406;28;20040;-48
2023/04/11 09:35:11;;;;;;;8.05;1.75;;;8.20;99.90;;;;;;5061512;28;20060;-49
2023/04/11 09:37:52;;;;;;;8.25;1.88;;;8.70;99.90;;;;;;5062675;28;20091;-46
2023/04/11 09:40:20;;;;;;;11.90;2.00;;;9.10;99.90;;;;;;5070374;28;20103;-47
2023/04/11 09:42:47;;;;;;;9.25;2.05;;;9.10;99.90;;;;;;5072250;28;20044;-49
2023/04/11 09:45:18;;;;;;;7.32;1.38;;;9.00;99.90;;;;;;5071752;28;20111;-47
2023/04/11 09:47:45;;;;;;;8.60;1.95;;;8.80;99.90;;;;;;5072523;28;20040;-46
2023/04/11 09:50:12;;;;;;;9.00;1.10;;;8.70;99.90;;;;;;5066115;28;20036;-46
2023/04/11 09:52:44;;;;;;;3.40;1.10;;;8.30;99.90;;;;;;5061244;28;20037;-46
2023/04/11 09:55:11;;;;;;;;;;;7.60;99.90;;;;;;5060794;28;20110;-46
2023/04/11 09:57:40;;;;;;;7.72;1.48;;;7.50;99.90;;;;;;5061847;28;19923;-46
2023/04/11 10:00:15;;;;;;;7.13;1.40;;;7.70;99.90;;;;;;5051613;28;20374;-49
2023/04/11 10:02:43;;;;;;;10.93;1.45;;;7.50;99.90;;;;;;5055340;28;20064;-49
2023/04/11 10:05:09;;;;;;;6.35;1.60;;;7.40;99.90;;;;;;5060766;28;20037;-48
2023/04/11 10:08:03;;;;;;;7.05;1.63;;;7.50;99.90;;;;;;5062066;28;20089;-48
2023/04/11 10:10:29;;;;;;;5.45;1.20;;;7.80;99.90;;;;;;5062433;28;20049;-46
2023/04/11 10:12:55;;;;;;;6.57;1.60;;;8.00;99.90;;;;;;5071809;28;20385;-46
2023/04/11 10:15:21;;;;;;;10.68;1.83;;;8.50;99.90;;;;;;5072017;28;20036;-46
2023/04/11 10:18:11;;;;;;;7.93;1.52;;;8.90;99.90;;;;;;5071836;28;20392;-48
2023/04/11 10:20:43;;;;;;;10.80;1.63;;;8.70;99.90;;;;;;5071322;28;20573;-47
2023/04/11 10:23:10;;;;;;;11.27;1.50;;;9.00;99.90;;;;;;5071408;28;20481;-46
2023/04/11 10:25:59;;;;;;;14.98;2.13;;;8.60;99.90;;;;;;5069671;28;20501;-46
2023/04/11 10:28:29;;;;;;;7.47;2.05;;;8.00;99.90;;;;;;5069617;28;20492;-46
2023/04/11 10:30:59;;;;;;;6.60;2.35;;;7.90;99.90;;;;;;5071035;28;20512;-47
2023/04/11 10:33:26;;;;;;;8.50;1.33;;;7.50;99.90;;;;;;5071435;28;20041;-48
2023/04/11 10:36:00;;;;;;;9.85;1.88;;;7.60;99.90;;;;;;5071292;28;20033;-45
2023/04/11 10:38:47;;;;;;;8.70;2.63;;;7.10;99.90;;;;;;5071589;28;20090;-46
2023/04/11 10:41:22;;;;;;;6.43;1.33;;;7.00;99.90;;;;;;5070240;28;20084;-46
2023/04/11 10:43:48;;;;;;;8.27;1.80;;;7.40;99.90;;;;;;5071589;28;20036;-47
2023/04/11 10:46:21;;;;;;;5.78;1.23;;;7.50;99.90;;;;;;5071233;28;20083;-47
2023/04/11 10:49:01;;;;;;;7.47;1.30;;;7.10;99.90;;;;;;5071132;28;20037;-46
2023/04/11 10:51:28;;;;;;;11.88;1.88;;;7.50;99.90;;;;;;5070815;28;20054;-46
2023/04/11 10:53:58;;;;;;;7.93;1.55;;;7.60;99.90;;;;;;5071094;28;20091;-47
2023/04/11 10:56:42;;;;;;;5.72;1.52;;;7.30;99.90;;;;;;5071308;28;20049;-45
2023/04/11 10:59:30;;;;;;;5.85;1.55;;;7.10;99.90;;;;;;5071712;28;20090;-48
2023/04/11 11:02:00;;;;;;;10.77;1.60;;;7.00;99.90;;;;;;5070161;28;20455;-45
2023/04/11 11:04:33;;;;;;;8.48;1.50;;;7.40;99.90;;;;;;5066419;28;20045;-47
2023/04/11 11:07:00;;;;;;;8.63;1.55;;;7.80;99.90;;;;;;5059904;28;20075;-47
2023/04/11 11:09:29;;;;;;;7.57;2.30;;;8.20;99.90;;;;;;5059755;28;20098;-46
2023/04/11 11:12:12;;;;;;;12.15;2.63;;;8.80;99.90;;;;;;5060668;28;20123;-45
2023/04/11 11:14:47;;;;;;;11.38;2.05;;;8.90;99.90;;;;;;5064505;28;20085;-46
2023/04/11 11:17:14;;;;;;;11.95;2.72;;;9.40;99.90;;;;;;5062732;28;20036;-47
2023/04/11 11:19:44;;;;;;;9.70;2.25;;;9.10;99.90;;;;;;5061969;28;20382;-46
2023/04/11 11:22:17;;;;;;;9.95;2.38;;;9.30;99.90;;;;;;5064026;28;20044;-45
2023/04/11 11:24:43;;;;;;;12.57;2.17;;;9.60;99.90;;;;;;5063903;28;20041;-46
2023/04/11 11:27:22;;;;;;;12.85;2.28;;;9.00;99.90;;;;;;5063961;28;20048;-48
2023/04/11 11:29:47;;;;;;;14.65;2.47;;;8.70;99.90;;;;;;5064766;28;20028;-46
2023/04/11 11:32:26;;;;;;;13.30;2.75;;;8.60;99.90;;;;;;5065171;28;20056;-46
2023/04/11 11:34:53;;;;;;;8.98;1.88;;;8.50;99.90;;;;;;5067721;28;20139;-45
2023/04/11 11:37:19;;;;;;;13.23;1.98;;;8.20;99.90;;;;;;5073517;28;20044;-47
2023/04/11 11:39:46;;;;;;;7.93;1.58;;;8.10;99.90;;;;;;5074843;28;20108;-46
2023/04/11 11:42:11;;;;;;;9.93;1.80;;;8.40;99.90;;;;;;5074446;28;20102;-46
2023/04/11 11:44:37;;;;;;;9.85;1.70;;;8.60;99.90;;;;;;5074526;28;20044;-47
2023/04/11 11:47:05;;;;;;;7.70;1.58;;;8.60;99.90;;;;;;5073147;28;20033;-45
2023/04/11 11:49:54;;;;;;;9.73;1.77;;;8.40;99.90;;;;;;5073684;28;20024;-46
2023/04/11 11:52:38;;;;;;;7.63;2.88;;;8.70;99.90;;;;;;5074216;28;20137;-46
2023/04/11 11:55:08;;;;;;;7.90;2.00;;;9.00;99.90;;;;;;5074468;28;20051;-46
2023/04/11 11:57:36;;;;;;;8.40;1.95;;;8.70;99.90;;;;;;5073542;28;20039;-47
2023/04/11 12:00:08;;;;;;;4.32;1.00;;;7.00;99.90;;;;;;5045008;28;20068;-47
2023/04/11 12:02:35;;;;;;;10.05;1.77;;;6.80;99.90;;;;;;5043526;28;20047;-47
2023/04/11 12:05:05;;;;;;;7.80;2.05;;;6.50;99.90;;;;;;5052662;28;20072;-46
2023/04/11 12:07:32;;;;;;;6.90;1.52;;;6.60;99.90;;;;;;5053981;28;20056;-46
2023/04/11 12:10:05;;;;;;;11.27;2.45;;;7.30;99.90;;;;;;5054054;28;20048;-47
2023/04/11 12:12:41;;;;;;;12.52;2.97;;;7.80;99.90;;;;;;5055050;28;20116;-46
2023/04/11 12:15:15;;;;;;;12.65;3.28;;;8.20;99.90;;;;;;5053529;28;20464;-49
2023/04/11 12:17:41;;;;;;;12.55;2.35;;;8.50;99.90;;;;;;5053537;28;20049;-48
2023/04/11 12:20:09;;;;;;;18.30;3.83;;;8.90;99.90;;;;;;5053747;28;20481;-47
2023/04/11 12:22:38;;;;;;;14.45;2.78;;;8.40;99.90;;;;;;5053563;28;20053;-48
2023/04/11 12:25:05;;;;;;;11.00;2.50;;;8.60;99.90;;;;;;5052891;28;20037;-46
2023/04/11 12:27:33;;;;;;;12.70;2.15;;;8.80;99.90;;;;;;5053754;28;20072;-46
2023/04/11 12:30:00;;;;;;;12.88;3.22;;;8.60;99.90;;;;;;5053986;28;20044;-46
2023/04/11 12:32:26;;;;;;;5.22;1.50;;;8.60;99.90;;;;;;5053306;28;20045;-47
2023/04/11 12:34:53;;;;;;;10.20;1.70;;;8.50;99.90;;;;;;5053531;28;20565;-46
2023/04/11 12:37:19;;;;;;;9.63;1.38;;;8.70;99.90;;;;;;5053569;28;20085;-45
2023/04/11 12:39:45;;;;;;;9.82;1.75;;;8.90;99.90;;;;;;5053382;28;20489;-47
2023/04/11 12:42:10;;;;;;;6.88;1.60;;;8.80;99.90;;;;;;5052655;28;20047;-46
2023/04/11 12:44:36;;;;;;;7.68;1.50;;;8.80;99.90;;;;;;5068157;28;20124;-48
2023/04/11 12:47:02;;;;;;;9.43;1.30;;;8.50;99.90;;;;;;5052993;28;20386;-47
2023/04/11 12:49:27;;;;;;;12.45;2.00;;;8.60;99.90;;;;;;5071953;28;20385;-58
2023/04/11 12:51:53;;;;;;;11.45;2.03;;;9.00;99.90;;;;;;5073326;28;20048;-56